Погода Пласкушана 2 недели

Тверская область, Россия

24 мая-06 июня
  • 24мая
    Сегодня
    +7°
    +22°
    Ясно и безоблачно
    ВремяПогодаТемператураВлажностьДавлениеВетер, м/сВероятность осадков
    00:00Ясно и безоблачно+11°C56 %749 мм2.9 м/с2 %
    03:00Практически безоблачно+9°C60 %750 мм2.8 м/с2 %
    06:00Ясно и безоблачно+9°C64 %751 мм2.4 м/с2 %
    09:00Ясно и безоблачно+17°C48 %752 мм1.8 м/с2 %
    12:00Ясно и безоблачно+20°C36 %752 мм3.4 м/с2 %
    15:00Ясно и безоблачно+21°C34 %751 мм3.1 м/с2 %
    18:00Ясно и безоблачно+21°C36 %750 мм2.7 м/с2 %
    21:00Ясно и безоблачно+16°C57 %750 мм2.6 м/с2 %
  • 25мая
    Суббота
    +8°
    +24°
    Ясно и безоблачно
    ВремяПогодаТемператураВлажностьДавлениеВетер, м/сВероятность осадков
    00:00Ясно и безоблачно+10°C63 %750 мм2.9 м/с2 %
    03:00Ясно и безоблачно+7°C65 %750 мм2.6 м/с2 %
    06:00Ясно и безоблачно+9°C67 %750 мм2.6 м/с2 %
    09:00Ясно и безоблачно+17°C48 %750 мм2.0 м/с2 %
    12:00Ясно и безоблачно+21°C35 %749 мм1.9 м/с2 %
    15:00Ясно и безоблачно+23°C32 %748 мм2.3 м/с2 %
    18:00Ясно и безоблачно+23°C35 %747 мм2.3 м/с2 %
    21:00Ясно и безоблачно+18°C65 %746 мм2.2 м/с2 %
  • 26мая
    Воскресенье
    +9°
    +25°
    Облачно с прояснениями
    ВремяПогодаТемператураВлажностьДавлениеВетер, м/сВероятность осадков
    00:00Ясно и безоблачно+11°C75 %746 мм2.1 м/с2 %
    03:00Ясно и безоблачно+10°C71 %746 мм1.6 м/с2 %
    06:00Ясно и безоблачно+11°C76 %746 мм2.0 м/с2 %
    09:00Ясно и безоблачно+21°C49 %747 мм1.5 м/с2 %
    12:00Облачно с прояснениями+24°C41 %747 мм1.6 м/с6 %
    15:00Облачно с прояснениями+22°C58 %747 мм3.8 м/с32 %
    18:00Практически безоблачно+21°C62 %746 мм2.1 м/с41 %
    21:00Практически безоблачно+18°C81 %746 мм1.5 м/с17 %
  • 27мая
    Понедельник
    +11°
    +23°
    Ясно и безоблачно
    ВремяПогодаТемператураВлажностьДавлениеВетер, м/сВероятность осадков
    00:00Практически безоблачно+14°C89 %747 мм2.4 м/с2 %
    03:00Ясно и безоблачно+11°C80 %747 мм3.3 м/с2 %
    06:00Ясно и безоблачно+10°C65 %748 мм2.6 м/с4 %
    09:00Ясно и безоблачно+18°C54 %748 мм2.2 м/с4 %
    12:00Ясно и безоблачно+22°C45 %748 мм2.6 м/с13 %
    15:00Ясно и безоблачно+23°C41 %747 мм2.0 м/с19 %
    18:00Практически безоблачно+23°C41 %747 мм1.5 м/с25 %
    21:00Ясно и безоблачно+18°C64 %746 мм2.4 м/с5 %
  • 28мая
    Вторник
    +13°
    +25°
    Облачно с прояснениями
    ВремяПогодаТемператураВлажностьДавлениеВетер, м/сВероятность осадков
    00:00Ясно и безоблачно+14°C66 %746 мм3.0 м/с2 %
    03:00Ясно и безоблачно+11°C80 %746 мм2.6 м/с2 %
    06:00Ясно и безоблачно+12°C84 %746 мм2.4 м/с2 %
    09:00Ясно и безоблачно+21°C65 %746 мм1.7 м/с2 %
    12:00Практически безоблачно+24°C44 %746 мм1.2 м/с12 %
    15:00Облачно с прояснениями+24°C39 %745 мм1.7 м/с21 %
    18:00Небольшая облачность+24°C42 %744 мм1.0 м/с24 %
    21:00Ясно и безоблачно+20°C64 %744 мм2.2 м/с3 %
Мы используем cookies
Соглашаюсь